createdAt,value
2023-01-30T00:02:08.412Z,3.85
2023-01-30T00:04:35.511Z,3.79
2023-01-30T00:07:02.359Z,3.74
2023-01-30T00:09:29.468Z,3.76
2023-01-30T00:11:56.218Z,3.77
2023-01-30T00:14:23.295Z,3.79
2023-01-30T00:16:50.075Z,3.79
2023-01-30T00:19:17.138Z,3.78
2023-01-30T00:21:43.903Z,3.78
2023-01-30T00:24:11.367Z,3.75
2023-01-30T00:26:38.275Z,3.75
2023-01-30T00:29:05.438Z,3.71
2023-01-30T00:31:32.295Z,3.65
2023-01-30T00:33:59.413Z,3.60
2023-01-30T00:36:26.245Z,3.58
2023-01-30T00:38:53.323Z,3.57
2023-01-30T00:41:20.273Z,3.56
2023-01-30T00:44:06.068Z,3.56
2023-01-30T00:46:52.067Z,3.50
2023-01-30T00:49:19.270Z,3.51
2023-01-30T00:51:46.122Z,3.48
2023-01-30T00:54:13.276Z,3.49
2023-01-30T00:56:40.028Z,3.53
2023-01-30T00:59:07.110Z,3.51
2023-01-30T01:01:34.075Z,3.44
2023-01-30T01:04:01.219Z,3.39
2023-01-30T01:06:28.039Z,3.40
2023-01-30T01:08:55.162Z,3.42
2023-01-30T01:11:25.040Z,3.42
2023-01-30T01:13:56.465Z,3.36
2023-01-30T01:16:23.827Z,3.40
2023-01-30T01:18:51.145Z,3.30
2023-01-30T01:21:20.288Z,3.30
2023-01-30T01:23:52.003Z,3.26
2023-01-30T01:26:19.425Z,3.26
2023-01-30T01:28:46.627Z,3.30
2023-01-30T01:31:14.478Z,3.32
2023-01-30T01:33:41.654Z,3.28
2023-01-30T01:36:08.687Z,3.21
2023-01-30T01:38:35.757Z,3.25
2023-01-30T01:41:02.534Z,3.20
2023-01-30T01:43:37.494Z,3.20
2023-01-30T01:46:27.291Z,3.22
2023-01-30T01:48:56.391Z,3.27
2023-01-30T01:51:31.861Z,3.23
2023-01-30T01:54:05.051Z,3.13
2023-01-30T01:56:32.602Z,3.14
2023-01-30T01:59:02.558Z,3.11
2023-01-30T02:01:29.337Z,3.10
2023-01-30T02:03:58.327Z,3.00
2023-01-30T02:06:25.111Z,3.00
2023-01-30T02:08:57.839Z,2.96
2023-01-30T02:11:39.430Z,2.96
2023-01-30T02:14:06.521Z,2.92
2023-01-30T02:16:33.267Z,2.88
2023-01-30T02:19:00.384Z,2.82
2023-01-30T02:21:39.512Z,2.79
2023-01-30T02:24:37.483Z,2.86
2023-01-30T02:27:38.232Z,2.79
2023-01-30T02:30:33.116Z,2.94
2023-01-30T02:33:19.068Z,2.94
2023-01-30T02:35:55.782Z,2.89
2023-01-30T02:38:47.749Z,2.91
2023-01-30T02:41:28.399Z,2.91
2023-01-30T02:44:06.386Z,2.94
2023-01-30T02:46:44.093Z,2.97
2023-01-30T02:49:24.275Z,2.96
2023-01-30T02:51:51.446Z,2.88
2023-01-30T02:54:18.259Z,2.88
2023-01-30T02:56:52.802Z,2.84
2023-01-30T02:59:26.533Z,2.82
2023-01-30T03:02:18.786Z,2.82
2023-01-30T03:05:06.880Z,2.89
2023-01-30T03:07:55.375Z,2.85
2023-01-30T03:10:46.543Z,2.85
2023-01-30T03:13:16.595Z,2.84
2023-01-30T03:15:55.882Z,2.83
2023-01-30T03:18:22.968Z,2.83
2023-01-30T03:20:49.763Z,2.87
2023-01-30T03:23:16.916Z,2.93
2023-01-30T03:25:43.880Z,2.95
2023-01-30T03:28:10.953Z,2.94
2023-01-30T03:30:37.685Z,2.92
2023-01-30T03:33:04.732Z,2.92
2023-01-30T03:35:31.516Z,2.84
2023-01-30T03:37:58.742Z,2.78
2023-01-30T03:40:25.516Z,2.84
2023-01-30T03:42:52.556Z,2.81
2023-01-30T03:45:19.635Z,2.76
2023-01-30T03:47:46.907Z,2.79
2023-01-30T03:50:13.729Z,2.81
2023-01-30T03:52:40.812Z,2.82
2023-01-30T03:55:08.067Z,2.78
2023-01-30T03:57:35.146Z,2.74
2023-01-30T04:00:02.135Z,2.80
2023-01-30T04:02:29.338Z,2.78
2023-01-30T04:04:56.275Z,2.81
2023-01-30T04:07:23.831Z,2.79
2023-01-30T04:09:50.576Z,2.82
2023-01-30T04:12:17.625Z,2.78
2023-01-30T04:14:44.404Z,2.83
2023-01-30T04:17:11.504Z,2.79
2023-01-30T04:19:38.432Z,2.78
2023-01-30T04:22:05.555Z,2.84
2023-01-30T04:24:32.313Z,2.77
2023-01-30T04:26:59.464Z,2.72
2023-01-30T04:29:26.197Z,2.73
2023-01-30T04:31:53.273Z,2.75
2023-01-30T04:34:20.112Z,2.75
2023-01-30T04:36:47.159Z,2.79
2023-01-30T04:39:13.958Z,2.75
2023-01-30T04:41:41.082Z,2.76
2023-01-30T04:44:07.966Z,2.76
2023-01-30T04:46:35.118Z,2.73
2023-01-30T04:49:01.853Z,2.71
2023-01-30T04:51:28.986Z,2.76
2023-01-30T04:53:55.732Z,2.79
2023-01-30T04:56:22.822Z,2.79
2023-01-30T04:58:49.595Z,2.79
2023-01-30T05:01:23.419Z,2.75
2023-01-30T05:03:53.665Z,2.81
2023-01-30T05:06:21.663Z,2.83
2023-01-30T05:08:49.738Z,2.81
2023-01-30T05:11:16.857Z,2.78
2023-01-30T05:13:46.471Z,2.81
2023-01-30T05:16:14.118Z,2.81
2023-01-30T05:18:40.885Z,2.83
2023-01-30T05:21:09.598Z,2.81
2023-01-30T05:23:36.393Z,2.84
2023-01-30T05:26:03.796Z,2.85
2023-01-30T05:28:30.586Z,2.85
2023-01-30T05:31:04.693Z,2.84
2023-01-30T05:33:31.623Z,2.86
2023-01-30T05:35:59.352Z,2.85
2023-01-30T05:38:26.365Z,2.83
2023-01-30T05:41:07.125Z,2.84
2023-01-30T05:43:34.527Z,2.78
2023-01-30T05:46:02.718Z,2.81
2023-01-30T05:48:29.719Z,2.85
2023-01-30T05:50:57.784Z,2.85
2023-01-30T05:53:26.522Z,2.85
2023-01-30T05:55:57.537Z,2.85
2023-01-30T05:58:24.417Z,2.86
2023-01-30T06:00:51.488Z,2.84
2023-01-30T06:03:18.281Z,2.83
2023-01-30T06:05:45.505Z,2.83
2023-01-30T06:08:12.489Z,2.86
2023-01-30T06:10:39.562Z,2.85
2023-01-30T06:13:06.343Z,2.84
2023-01-30T06:15:33.438Z,2.84
2023-01-30T06:18:00.319Z,2.89
2023-01-30T06:20:27.473Z,2.90
2023-01-30T06:22:54.235Z,2.91
2023-01-30T06:25:21.391Z,2.91
2023-01-30T06:27:48.177Z,2.87
2023-01-30T06:30:15.530Z,2.85
2023-01-30T06:32:42.895Z,2.91
2023-01-30T06:35:10.043Z,2.93
2023-01-30T06:37:36.914Z,2.88
2023-01-30T06:40:04.348Z,2.86
2023-01-30T06:42:31.098Z,2.86
2023-01-30T06:44:58.254Z,2.88
2023-01-30T06:47:25.137Z,2.88
2023-01-30T06:49:52.248Z,2.89
2023-01-30T06:52:18.992Z,2.84
2023-01-30T06:54:46.093Z,2.82
2023-01-30T06:57:12.862Z,2.90
2023-01-30T06:59:39.935Z,2.91
2023-01-30T07:02:06.825Z,2.90
2023-01-30T07:04:33.966Z,2.89
2023-01-30T07:07:00.715Z,2.82
2023-01-30T07:09:28.178Z,2.84
2023-01-30T07:11:54.989Z,2.87
2023-01-30T07:14:22.096Z,2.90
2023-01-30T07:16:48.949Z,2.85
2023-01-30T07:19:16.082Z,2.78
2023-01-30T07:21:42.852Z,2.86
2023-01-30T07:24:09.950Z,2.88
2023-01-30T07:26:36.748Z,2.85
2023-01-30T07:29:03.888Z,2.88
2023-01-30T07:31:30.765Z,2.83
2023-01-30T07:33:57.834Z,2.79
2023-01-30T07:36:24.639Z,2.86
2023-01-30T07:38:51.774Z,2.80
2023-01-30T07:41:18.627Z,2.73
2023-01-30T07:43:45.744Z,2.75
2023-01-30T07:46:12.524Z,2.70
2023-01-30T07:48:39.630Z,2.70
2023-01-30T07:51:06.580Z,2.73
2023-01-30T07:53:33.658Z,2.81
2023-01-30T07:56:00.996Z,2.77
2023-01-30T07:58:29.925Z,2.75
2023-01-30T08:00:57.561Z,2.71
2023-01-30T08:03:24.717Z,2.76
2023-01-30T08:05:51.741Z,2.74
2023-01-30T08:08:18.807Z,2.81
2023-01-30T08:10:45.704Z,2.83
2023-01-30T08:13:12.805Z,2.81
2023-01-30T08:15:39.599Z,2.79
2023-01-30T08:18:09.827Z,2.82
2023-01-30T08:20:36.692Z,2.79
2023-01-30T08:23:04.021Z,2.81
2023-01-30T08:25:30.945Z,2.78
2023-01-30T08:27:59.323Z,2.80
2023-01-30T08:30:26.167Z,2.84
2023-01-30T08:32:53.369Z,2.82
2023-01-30T08:35:20.146Z,2.84
2023-01-30T08:37:47.342Z,2.89
2023-01-30T08:40:14.296Z,2.86
2023-01-30T08:42:44.085Z,2.82
2023-01-30T08:45:11.284Z,2.83
2023-01-30T08:47:38.414Z,2.85
2023-01-30T08:50:05.495Z,2.85
2023-01-30T08:52:33.321Z,2.88
2023-01-30T08:55:00.115Z,2.91
2023-01-30T08:57:27.253Z,2.93
2023-01-30T08:59:54.079Z,2.94
2023-01-30T09:02:21.234Z,2.96
2023-01-30T09:04:48.148Z,2.95
2023-01-30T09:07:15.211Z,2.98
2023-01-30T09:09:42.039Z,3.03
2023-01-30T09:12:09.204Z,3.06
2023-01-30T09:14:36.101Z,3.07
2023-01-30T09:17:03.191Z,3.13
2023-01-30T09:19:30.123Z,3.10
2023-01-30T09:21:57.298Z,3.14
2023-01-30T09:24:26.625Z,3.16
2023-01-30T09:26:54.617Z,3.19
2023-01-30T09:29:21.513Z,3.21
2023-01-30T09:31:48.684Z,3.22
2023-01-30T09:34:15.694Z,3.28
2023-01-30T09:36:42.836Z,3.28
2023-01-30T09:39:09.718Z,3.29
2023-01-30T09:41:49.650Z,3.26
2023-01-30T09:44:47.983Z,3.33
2023-01-30T09:47:19.254Z,3.35
2023-01-30T09:49:48.921Z,3.36
2023-01-30T09:52:25.273Z,3.38
2023-01-30T09:54:52.010Z,3.40
2023-01-30T09:57:23.404Z,3.32
2023-01-30T10:00:04.105Z,3.40
2023-01-30T10:03:01.951Z,3.36
2023-01-30T10:05:53.225Z,3.35
2023-01-30T10:08:54.418Z,3.32
2023-01-30T10:11:30.262Z,3.35
2023-01-30T10:14:23.014Z,3.45
2023-01-30T10:17:14.180Z,3.40
2023-01-30T10:20:12.456Z,3.37
2023-01-30T10:22:52.771Z,3.47
2023-01-30T10:25:40.969Z,3.41
2023-01-30T10:28:21.733Z,3.38
2023-01-30T10:30:49.909Z,3.39
2023-01-30T10:33:36.873Z,3.43
2023-01-30T10:36:06.479Z,3.43
2023-01-30T10:38:48.182Z,3.40
2023-01-30T10:41:41.516Z,3.47
2023-01-30T10:44:09.988Z,3.45
2023-01-30T10:46:58.885Z,3.45
2023-01-30T10:49:25.622Z,3.45
2023-01-30T10:52:01.699Z,3.48
2023-01-30T10:54:41.228Z,3.50
2023-01-30T10:57:26.040Z,3.52
2023-01-30T11:00:04.178Z,3.56
2023-01-30T11:03:13.349Z,3.57
2023-01-30T11:05:51.135Z,3.56
2023-01-30T11:08:32.162Z,3.52
2023-01-30T11:10:59.224Z,3.53
2023-01-30T11:13:33.000Z,3.60
2023-01-30T11:16:07.091Z,3.58
2023-01-30T11:19:18.264Z,3.59
2023-01-30T11:21:32.028Z,3.67
2023-01-30T11:24:17.315Z,3.60
2023-01-30T11:26:47.706Z,3.65
2023-01-30T11:29:15.330Z,3.68
2023-01-30T11:31:42.297Z,3.67
2023-01-30T11:34:19.866Z,3.77
2023-01-30T11:36:49.469Z,3.76
2023-01-30T11:39:18.637Z,3.75
2023-01-30T11:41:54.397Z,3.80
2023-01-30T11:44:27.811Z,3.80
2023-01-30T11:46:54.601Z,3.80
2023-01-30T11:49:44.722Z,3.82
2023-01-30T11:52:08.895Z,3.84
2023-01-30T11:54:39.111Z,3.84
2023-01-30T11:57:06.795Z,3.89
2023-01-30T11:59:38.333Z,3.88
2023-01-30T12:02:18.362Z,3.89
2023-01-30T12:04:46.313Z,3.91
2023-01-30T12:07:31.998Z,3.97
2023-01-30T12:09:59.233Z,3.99
2023-01-30T12:12:30.208Z,3.99
2023-01-30T12:15:15.226Z,4.03
2023-01-30T12:18:00.313Z,4.04
2023-01-30T12:21:00.119Z,4.09
2023-01-30T12:23:29.899Z,4.10
2023-01-30T12:26:16.631Z,4.09
2023-01-30T12:28:54.178Z,4.10
2023-01-30T12:31:24.730Z,4.10
2023-01-30T12:33:51.592Z,4.08
2023-01-30T12:36:21.842Z,4.12
2023-01-30T12:39:15.029Z,4.14
2023-01-30T12:42:00.352Z,4.09
2023-01-30T12:44:55.029Z,4.17
2023-01-30T12:47:49.512Z,4.15
2023-01-30T12:50:24.218Z,4.22
2023-01-30T12:52:51.281Z,4.22
2023-01-30T12:55:36.328Z,4.22
2023-01-30T12:58:26.075Z,4.27
2023-01-30T13:01:06.710Z,4.28
2023-01-30T13:03:54.910Z,4.33
2023-01-30T13:06:40.597Z,4.35
2023-01-30T13:09:34.012Z,4.33
2023-01-30T13:12:32.955Z,4.38
2023-01-30T13:15:18.750Z,4.41
2023-01-30T13:18:10.234Z,4.39
2023-01-30T13:20:47.799Z,4.41
2023-01-30T13:23:39.395Z,4.46
2023-01-30T13:26:11.684Z,4.46
2023-01-30T13:28:39.136Z,4.46
2023-01-30T13:31:08.406Z,4.48
2023-01-30T13:33:37.057Z,4.54
2023-01-30T13:36:07.259Z,4.52
2023-01-30T13:38:34.201Z,4.49
2023-01-30T13:41:01.455Z,4.54
2023-01-30T13:43:30.790Z,4.58
2023-01-30T13:45:59.718Z,4.60
2023-01-30T13:48:55.824Z,4.63
2023-01-30T13:51:32.875Z,4.62
2023-01-30T13:54:13.967Z,4.64
2023-01-30T13:56:43.588Z,4.67
2023-01-30T13:59:38.365Z,4.71
2023-01-30T14:02:09.472Z,4.72
2023-01-30T14:04:36.892Z,4.73
2023-01-30T14:07:13.083Z,4.70
2023-01-30T14:09:44.696Z,4.72
2023-01-30T14:12:22.250Z,4.72
2023-01-30T14:15:13.565Z,4.73
2023-01-30T14:18:02.726Z,4.76
2023-01-30T14:20:30.911Z,4.75
2023-01-30T14:22:59.266Z,4.78
2023-01-30T14:25:26.087Z,4.76
2023-01-30T14:27:59.385Z,4.78
2023-01-30T14:30:38.895Z,4.87
2023-01-30T14:33:33.396Z,4.81
2023-01-30T14:36:03.209Z,4.83
2023-01-30T14:38:34.614Z,4.82
2023-01-30T14:41:01.365Z,4.87
2023-01-30T14:43:37.460Z,4.85
2023-01-30T14:46:16.495Z,4.87
2023-01-30T14:48:50.115Z,4.88
2023-01-30T14:51:34.991Z,4.90
2023-01-30T14:54:02.774Z,4.91
2023-01-30T14:57:12.701Z,4.92
2023-01-30T14:59:45.586Z,4.97
2023-01-30T15:02:12.525Z,4.94
2023-01-30T15:05:00.363Z,4.95
2023-01-30T15:08:03.790Z,4.98
2023-01-30T15:10:46.148Z,4.98
2023-01-30T15:13:18.827Z,5.01
2023-01-30T15:16:23.214Z,4.97
2023-01-30T15:19:09.449Z,5.01
2023-01-30T15:22:32.325Z,5.03
2023-01-30T15:25:09.709Z,5.08
2023-01-30T15:27:52.226Z,5.10
2023-01-30T15:30:22.359Z,5.12
2023-01-30T15:32:50.024Z,5.16
2023-01-30T15:35:16.997Z,5.16
2023-01-30T15:37:46.831Z,5.16
2023-01-30T15:40:20.102Z,5.17
2023-01-30T15:42:47.988Z,5.20
2023-01-30T15:45:42.241Z,5.23
2023-01-30T15:48:19.410Z,5.22
2023-01-30T15:50:50.851Z,5.18
2023-01-30T15:53:17.751Z,5.15
2023-01-30T15:55:44.957Z,5.17
2023-01-30T15:58:17.245Z,5.18
2023-01-30T16:00:46.351Z,5.27
2023-01-30T16:03:22.086Z,5.26
2023-01-30T16:05:55.329Z,5.24
2023-01-30T16:08:29.678Z,5.29
2023-01-30T16:10:56.864Z,5.25
2023-01-30T16:13:23.970Z,5.23
2023-01-30T16:16:04.236Z,5.28
2023-01-30T16:18:31.101Z,5.37
2023-01-30T16:21:07.194Z,5.28
2023-01-30T16:23:35.854Z,5.28
2023-01-30T16:26:03.531Z,5.23
2023-01-30T16:28:30.369Z,5.22
2023-01-30T16:31:01.638Z,5.29
2023-01-30T16:33:35.662Z,5.26
2023-01-30T16:36:26.689Z,5.24
2023-01-30T16:38:54.550Z,5.21
2023-01-30T16:41:30.752Z,5.22
2023-01-30T16:44:20.328Z,5.23
2023-01-30T16:46:59.628Z,5.22
2023-01-30T16:49:35.641Z,5.21
2023-01-30T16:52:05.803Z,5.18
2023-01-30T16:54:32.734Z,5.23
2023-01-30T16:56:59.867Z,5.25
2023-01-30T16:59:30.059Z,5.22
2023-01-30T17:01:59.133Z,5.19
2023-01-30T17:04:31.401Z,5.19
2023-01-30T17:07:04.203Z,5.15
2023-01-30T17:09:38.649Z,5.21
2023-01-30T17:12:44.413Z,5.23
2023-01-30T17:15:13.875Z,5.25
2023-01-30T17:17:41.387Z,5.22
2023-01-30T17:20:09.073Z,5.23
2023-01-30T17:22:37.291Z,5.20
2023-01-30T17:25:06.356Z,5.21
2023-01-30T17:27:33.431Z,5.24
2023-01-30T17:30:00.245Z,5.19
2023-01-30T17:32:27.420Z,5.23
2023-01-30T17:34:56.030Z,5.20
2023-01-30T17:37:23.174Z,5.22
2023-01-30T17:39:49.959Z,5.25
2023-01-30T17:42:22.152Z,5.26
2023-01-30T17:44:49.301Z,5.23
2023-01-30T17:47:16.548Z,5.26
2023-01-30T17:49:43.358Z,5.29
2023-01-30T17:52:11.425Z,5.26
2023-01-30T17:54:38.364Z,5.29
2023-01-30T17:57:06.454Z,5.29
2023-01-30T17:59:33.522Z,5.31
2023-01-30T18:02:00.693Z,5.31
2023-01-30T18:04:27.523Z,5.33
2023-01-30T18:06:56.949Z,5.34
2023-01-30T18:09:24.377Z,5.36
2023-01-30T18:11:51.552Z,5.33
2023-01-30T18:14:18.433Z,5.31
2023-01-30T18:16:45.625Z,5.29
2023-01-30T18:19:14.180Z,5.29
2023-01-30T18:21:44.997Z,5.33
2023-01-30T18:24:12.748Z,5.34
2023-01-30T18:26:40.564Z,5.37
2023-01-30T18:29:09.675Z,5.34
2023-01-30T18:31:37.416Z,5.34
2023-01-30T18:34:04.300Z,5.35
2023-01-30T18:36:33.357Z,5.37
2023-01-30T18:39:00.165Z,5.35
2023-01-30T18:41:28.080Z,5.39
2023-01-30T18:43:59.341Z,5.38
2023-01-30T18:46:27.125Z,5.36
2023-01-30T18:48:54.679Z,5.42
2023-01-30T18:51:23.400Z,5.42
2023-01-30T18:53:51.092Z,5.39
2023-01-30T18:56:23.192Z,5.49
2023-01-30T18:58:52.214Z,5.45
2023-01-30T19:01:23.739Z,5.43
2023-01-30T19:03:54.158Z,5.44
2023-01-30T19:06:21.303Z,5.47
2023-01-30T19:08:48.080Z,5.47
2023-01-30T19:11:35.217Z,5.44
2023-01-30T19:14:02.354Z,5.43
2023-01-30T19:16:30.083Z,5.43
2023-01-30T19:18:57.030Z,5.37
2023-01-30T19:21:24.634Z,5.43
2023-01-30T19:23:51.749Z,5.42
2023-01-30T19:26:19.753Z,5.45
2023-01-30T19:28:47.015Z,5.49
2023-01-30T19:31:16.020Z,5.47
2023-01-30T19:33:43.489Z,5.45
2023-01-30T19:36:10.600Z,5.45
2023-01-30T19:38:37.506Z,5.48
2023-01-30T19:41:05.128Z,5.57
2023-01-30T19:43:31.990Z,5.56
2023-01-30T19:45:59.867Z,5.55
2023-01-30T19:48:26.793Z,5.53
2023-01-30T19:50:53.961Z,5.57
2023-01-30T19:53:20.766Z,5.56
2023-01-30T19:55:51.183Z,5.52
2023-01-30T19:58:18.221Z,5.56
2023-01-30T20:00:45.524Z,5.60
2023-01-30T20:03:16.404Z,5.56
2023-01-30T20:05:43.644Z,5.69
2023-01-30T20:08:21.793Z,5.67
2023-01-30T20:11:11.056Z,5.71
2023-01-30T20:13:38.840Z,5.71
2023-01-30T20:16:09.780Z,5.77
2023-01-30T20:18:38.226Z,5.78
2023-01-30T20:21:14.228Z,5.78
2023-01-30T20:23:41.719Z,5.79
2023-01-30T20:26:09.919Z,5.83
2023-01-30T20:28:37.083Z,5.83
2023-01-30T20:31:24.414Z,5.89
2023-01-30T20:33:51.332Z,5.90
2023-01-30T20:36:19.297Z,5.88
2023-01-30T20:38:46.841Z,5.87
2023-01-30T20:41:15.820Z,5.86
2023-01-30T20:43:46.945Z,5.87
2023-01-30T20:46:15.588Z,5.89
2023-01-30T20:48:42.479Z,5.88
2023-01-30T20:51:17.903Z,5.91
2023-01-30T20:53:55.541Z,5.98
2023-01-30T20:56:23.918Z,5.87
2023-01-30T20:58:50.936Z,5.91
2023-01-30T21:01:22.597Z,5.94
2023-01-30T21:03:50.946Z,5.88
2023-01-30T21:06:41.609Z,5.92
2023-01-30T21:09:07.025Z,5.90
2023-01-30T21:11:34.304Z,5.94
2023-01-30T21:14:01.222Z,5.98
2023-01-30T21:16:29.757Z,5.94
2023-01-30T21:19:01.262Z,5.93
2023-01-30T21:21:34.412Z,5.95
2023-01-30T21:24:06.209Z,5.96
2023-01-30T21:26:34.452Z,6.00
2023-01-30T21:29:01.677Z,5.95
2023-01-30T21:31:29.538Z,5.97
2023-01-30T21:33:56.857Z,6.00
2023-01-30T21:36:24.087Z,6.00
2023-01-30T21:39:09.724Z,6.02
2023-01-30T21:41:57.554Z,6.07
2023-01-30T21:44:25.813Z,6.05
2023-01-30T21:46:52.870Z,6.09
2023-01-30T21:49:20.014Z,6.07
2023-01-30T21:51:48.176Z,6.03
2023-01-30T21:54:15.592Z,6.04
2023-01-30T21:56:42.832Z,6.06
2023-01-30T21:59:09.833Z,6.04
2023-01-30T22:01:37.777Z,6.05
2023-01-30T22:04:06.167Z,6.04
2023-01-30T22:06:33.322Z,6.07
2023-01-30T22:09:01.170Z,6.09
2023-01-30T22:11:28.852Z,6.07
2023-01-30T22:13:55.773Z,6.11
2023-01-30T22:16:24.748Z,6.13
2023-01-30T22:18:53.156Z,6.14
2023-01-30T22:21:21.225Z,6.13
2023-01-30T22:23:49.165Z,6.17
2023-01-30T22:26:18.005Z,6.10
2023-01-30T22:28:44.925Z,6.11
2023-01-30T22:31:14.358Z,6.09
2023-01-30T22:33:45.263Z,6.09
2023-01-30T22:36:12.577Z,6.11
2023-01-30T22:38:43.254Z,6.16
2023-01-30T22:41:14.578Z,6.17
2023-01-30T22:44:03.634Z,6.17
2023-01-30T22:46:32.566Z,6.15
2023-01-30T22:49:00.116Z,6.14
2023-01-30T22:51:29.063Z,6.14
2023-01-30T22:53:57.890Z,6.14
2023-01-30T22:56:27.239Z,6.11
2023-01-30T22:58:54.178Z,6.10
2023-01-30T23:01:23.100Z,6.09
2023-01-30T23:04:11.322Z,6.09
2023-01-30T23:06:39.519Z,6.06
2023-01-30T23:09:07.078Z,6.11
2023-01-30T23:11:38.330Z,6.10
2023-01-30T23:14:23.296Z,6.10
2023-01-30T23:16:50.432Z,6.11
2023-01-30T23:19:17.660Z,6.08
2023-01-30T23:21:45.513Z,6.08
2023-01-30T23:24:19.114Z,6.09
2023-01-30T23:26:47.817Z,6.13
2023-01-30T23:29:15.811Z,6.11
2023-01-30T23:31:44.175Z,6.09
2023-01-30T23:34:15.895Z,6.10
2023-01-30T23:36:43.146Z,6.11
2023-01-30T23:39:11.139Z,6.12
2023-01-30T23:41:38.736Z,6.11
2023-01-30T23:44:05.709Z,6.10
2023-01-30T23:46:36.879Z,6.13
2023-01-30T23:49:05.506Z,6.12
2023-01-30T23:51:33.474Z,6.09
2023-01-30T23:54:00.313Z,6.12
2023-01-30T23:56:28.362Z,6.07
2023-01-30T23:58:55.496Z,6.10
